sensor_id;sensor_type;location;lat;lon;timestamp;pressure;altitude;pressure_sealevel;temperature;humidity
60015;BME280;45867;52.480;6.056;2023-03-01T01:02:23;103221.03;;;-5.18;100.00
60015;BME280;45867;52.480;6.056;2023-03-01T01:04:50;103215.84;;;-5.31;100.00
60015;BME280;45867;52.480;6.056;2023-03-01T01:07:15;103228.75;;;-5.31;100.00
60015;BME280;45867;52.480;6.056;2023-03-01T01:09:41;103228.84;;;-5.32;100.00
60015;BME280;45867;52.480;6.056;2023-03-01T01:12:07;103223.69;;;-5.32;100.00
60015;BME280;45867;52.480;6.056;2023-03-01T01:14:33;103219.16;;;-5.29;100.00
60015;BME280;45867;52.480;6.056;2023-03-01T01:16:58;103218.31;;;-5.29;100.00
60015;BME280;45867;52.480;6.056;2023-03-01T01:19:24;103224.63;;;-5.33;100.00
60015;BME280;45867;52.480;6.056;2023-03-01T01:21:50;103220.38;;;-5.34;100.00
60015;BME280;45867;52.480;6.056;2023-03-01T01:24:16;103216.53;;;-5.42;100.00
60015;BME280;45867;52.480;6.056;2023-03-01T01:26:42;103216.34;;;-5.39;100.00
60015;BME280;45867;52.480;6.056;2023-03-01T01:29:08;103219.13;;;-5.42;100.00
60015;BME280;45867;52.480;6.056;2023-03-01T01:31:36;103221.31;;;-5.48;100.00
60015;BME280;45867;52.480;6.056;2023-03-01T01:34:04;103212.28;;;-5.55;100.00
60015;BME280;45867;52.480;6.056;2023-03-01T01:36:31;103213.31;;;-5.58;100.00
60015;BME280;45867;52.480;6.056;2023-03-01T01:38:56;103212.59;;;-5.60;100.00
60015;BME280;45867;52.480;6.056;2023-03-01T01:41:23;103204.41;;;-5.67;100.00
60015;BME280;45867;52.480;6.056;2023-03-01T01:44:21;103206.69;;;-5.75;100.00
60015;BME280;45867;52.480;6.056;2023-03-01T01:47:06;103191.75;;;-5.84;100.00
60015;BME280;45867;52.480;6.056;2023-03-01T01:49:42;103199.34;;;-5.81;100.00
60015;BME280;45867;52.480;6.056;2023-03-01T01:52:13;103202.81;;;-5.82;100.00
60015;BME280;45867;52.480;6.056;2023-03-01T01:54:58;103194.25;;;-5.83;100.00
60015;BME280;45867;52.480;6.056;2023-03-01T01:57:30;103198.41;;;-5.80;100.00
60015;BME280;45867;52.480;6.056;2023-03-01T02:00:03;103176.69;;;-5.90;100.00
60015;BME280;45867;52.480;6.056;2023-03-01T02:02:29;103188.47;;;-5.73;100.00
60015;BME280;45867;52.480;6.056;2023-03-01T02:05:06;103183.72;;;-5.80;100.00
60015;BME280;45867;52.480;6.056;2023-03-01T02:07:36;103172.38;;;-5.77;100.00
60015;BME280;45867;52.480;6.056;2023-03-01T02:10:03;103178.69;;;-5.68;100.00
60015;BME280;45867;52.480;6.056;2023-03-01T02:12:29;103184.16;;;-5.73;100.00
60015;BME280;45867;52.480;6.056;2023-03-01T02:14:54;103189.34;;;-5.73;100.00
60015;BME280;45867;52.480;6.056;2023-03-01T02:17:21;103177.81;;;-5.82;100.00
60015;BME280;45867;52.480;6.056;2023-03-01T02:22:35;103170.81;;;-5.80;100.00
60015;BME280;45867;52.480;6.056;2023-03-01T02:27:33;103167.16;;;-5.90;100.00
60015;BME280;45867;52.480;6.056;2023-03-01T02:30:02;103171.22;;;-5.86;100.00
60015;BME280;45867;52.480;6.056;2023-03-01T02:32:28;103181.34;;;-5.95;100.00
60015;BME280;45867;52.480;6.056;2023-03-01T02:34:54;103163.13;;;-6.07;100.00
60015;BME280;45867;52.480;6.056;2023-03-01T02:37:20;103181.53;;;-5.98;100.00
60015;BME280;45867;52.480;6.056;2023-03-01T02:39:53;103178.53;;;-5.92;100.00
60015;BME280;45867;52.480;6.056;2023-03-01T02:42:26;103173.50;;;-5.94;100.00
60015;BME280;45867;52.480;6.056;2023-03-01T02:44:52;103175.47;;;-5.97;100.00
60015;BME280;45867;52.480;6.056;2023-03-01T02:47:18;103174.41;;;-5.95;100.00
60015;BME280;45867;52.480;6.056;2023-03-01T02:49:44;103156.25;;;-5.93;100.00
60015;BME280;45867;52.480;6.056;2023-03-01T02:55:26;103158.50;;;-6.01;100.00
60015;BME280;45867;52.480;6.056;2023-03-01T02:57:53;103146.22;;;-6.11;100.00
60015;BME280;45867;52.480;6.056;2023-03-01T03:00:28;103139.38;;;-6.12;100.00
60015;BME280;45867;52.480;6.056;2023-03-01T03:02:56;103142.19;;;-6.02;100.00
60015;BME280;45867;52.480;6.056;2023-03-01T03:05:27;103151.91;;;-5.80;100.00
60015;BME280;45867;52.480;6.056;2023-03-01T03:07:53;103150.16;;;-5.80;100.00
60015;BME280;45867;52.480;6.056;2023-03-01T03:10:21;103146.47;;;-5.75;100.00
60015;BME280;45867;52.480;6.056;2023-03-01T03:12:51;103145.94;;;-5.68;100.00
60015;BME280;45867;52.480;6.056;2023-03-01T03:15:18;103145.59;;;-5.76;100.00
60015;BME280;45867;52.480;6.056;2023-03-01T03:17:43;103136.50;;;-5.82;100.00
60015;BME280;45867;52.480;6.056;2023-03-01T03:20:11;103146.75;;;-5.80;100.00
60015;BME280;45867;52.480;6.056;2023-03-01T03:22:40;103140.84;;;-5.82;100.00
60015;BME280;45867;52.480;6.056;2023-03-01T03:25:08;103115.66;;;-5.78;100.00
60015;BME280;45867;52.480;6.056;2023-03-01T03:27:41;103129.00;;;-5.72;100.00
60015;BME280;45867;52.480;6.056;2023-03-01T03:30:10;103129.19;;;-5.75;100.00
60015;BME280;45867;52.480;6.056;2023-03-01T03:32:38;103120.00;;;-5.79;100.00
60015;BME280;45867;52.480;6.056;2023-03-01T03:35:05;103112.25;;;-5.79;100.00
60015;BME280;45867;52.480;6.056;2023-03-01T03:37:38;103122.91;;;-5.84;100.00
60015;BME280;45867;52.480;6.056;2023-03-01T03:40:23;103112.44;;;-5.95;100.00
60015;BME280;45867;52.480;6.056;2023-03-01T03:42:48;103110.00;;;-5.96;100.00
60015;BME280;45867;52.480;6.056;2023-03-01T03:45:15;103119.06;;;-5.91;100.00
60015;BME280;45867;52.480;6.056;2023-03-01T03:47:41;103119.59;;;-5.98;100.00
60015;BME280;45867;52.480;6.056;2023-03-01T03:50:07;103111.91;;;-6.13;100.00
60015;BME280;45867;52.480;6.056;2023-03-01T03:52:32;103115.63;;;-6.17;100.00
60015;BME280;45867;52.480;6.056;2023-03-01T03:54:58;103123.34;;;-6.17;100.00
60015;BME280;45867;52.480;6.056;2023-03-01T03:57:23;103129.75;;;-6.22;100.00
60015;BME280;45867;52.480;6.056;2023-03-01T03:59:48;103130.88;;;-6.27;100.00
60015;BME280;45867;52.480;6.056;2023-03-01T04:02:14;103124.34;;;-6.32;100.00
60015;BME280;45867;52.480;6.056;2023-03-01T04:04:47;103131.66;;;-6.39;100.00
60015;BME280;45867;52.480;6.056;2023-03-01T04:07:15;103121.53;;;-6.42;100.00
60015;BME280;45867;52.480;6.056;2023-03-01T04:09:40;103124.84;;;-6.40;100.00
60015;BME280;45867;52.480;6.056;2023-03-01T04:12:07;103127.03;;;-6.34;100.00
60015;BME280;45867;52.480;6.056;2023-03-01T04:14:34;103121.13;;;-6.36;100.00
60015;BME280;45867;52.480;6.056;2023-03-01T04:17:00;103135.09;;;-6.26;100.00
60015;BME280;45867;52.480;6.056;2023-03-01T04:19:26;103132.63;;;-6.27;100.00
60015;BME280;45867;52.480;6.056;2023-03-01T04:21:52;103128.28;;;-6.27;100.00
60015;BME280;45867;52.480;6.056;2023-03-01T04:24:18;103132.09;;;-6.32;100.00
60015;BME280;45867;52.480;6.056;2023-03-01T04:26:43;103132.38;;;-6.37;100.00
60015;BME280;45867;52.480;6.056;2023-03-01T04:29:08;103130.75;;;-6.38;100.00
60015;BME280;45867;52.480;6.056;2023-03-01T04:31:34;103129.19;;;-6.40;100.00
60015;BME280;45867;52.480;6.056;2023-03-01T04:33:59;103114.31;;;-6.37;100.00
60015;BME280;45867;52.480;6.056;2023-03-01T04:36:27;103126.81;;;-6.31;100.00
60015;BME280;45867;52.480;6.056;2023-03-01T04:38:54;103127.50;;;-6.41;100.00
60015;BME280;45867;52.480;6.056;2023-03-01T04:41:22;103129.66;;;-6.48;100.00
60015;BME280;45867;52.480;6.056;2023-03-01T04:43:48;103114.03;;;-6.59;100.00
60015;BME280;45867;52.480;6.056;2023-03-01T04:46:16;103112.28;;;-6.59;100.00
60015;BME280;45867;52.480;6.056;2023-03-01T04:48:43;103113.56;;;-6.52;100.00
60015;BME280;45867;52.480;6.056;2023-03-01T04:51:08;103113.56;;;-6.52;100.00
60015;BME280;45867;52.480;6.056;2023-03-01T04:53:34;103079.88;;;-6.63;100.00
60015;BME280;45867;52.480;6.056;2023-03-01T04:56:03;103097.56;;;-6.57;100.00
60015;BME280;45867;52.480;6.056;2023-03-01T04:58:29;103085.66;;;-6.59;100.00
60015;BME280;45867;52.480;6.056;2023-03-01T05:00:54;103085.81;;;-6.48;100.00
60015;BME280;45867;52.480;6.056;2023-03-01T05:03:20;103087.09;;;-6.41;100.00
60015;BME280;45867;52.480;6.056;2023-03-01T05:05:48;103082.81;;;-6.42;100.00
60015;BME280;45867;52.480;6.056;2023-03-01T05:08:14;103082.00;;;-6.42;100.00
60015;BME280;45867;52.480;6.056;2023-03-01T05:10:45;103078.00;;;-6.34;100.00
60015;BME280;45867;52.480;6.056;2023-03-01T05:13:12;103078.25;;;-6.24;100.00
60015;BME280;45867;52.480;6.056;2023-03-01T05:15:53;103083.09;;;-6.19;100.00
60015;BME280;45867;52.480;6.056;2023-03-01T05:18:19;103076.41;;;-6.22;100.00
60015;BME280;45867;52.480;6.056;2023-03-01T05:20:44;103060.47;;;-6.29;100.00
60015;BME280;45867;52.480;6.056;2023-03-01T05:23:09;103062.34;;;-6.18;100.00
60015;BME280;45867;52.480;6.056;2023-03-01T05:25:35;103068.66;;;-6.09;100.00
60015;BME280;45867;52.480;6.056;2023-03-01T05:28:07;103068.78;;;-5.98;100.00
60015;BME280;45867;52.480;6.056;2023-03-01T05:30:35;103053.28;;;-5.98;100.00
60015;BME280;45867;52.480;6.056;2023-03-01T05:33:01;103057.63;;;-5.98;100.00
60015;BME280;45867;52.480;6.056;2023-03-01T05:35:26;103063.94;;;-6.03;100.00
60015;BME280;45867;52.480;6.056;2023-03-01T05:37:52;103072.28;;;-5.99;100.00
60015;BME280;45867;52.480;6.056;2023-03-01T05:40:22;103058.34;;;-5.96;100.00
60015;BME280;45867;52.480;6.056;2023-03-01T05:42:52;103064.47;;;-5.97;100.00
60015;BME280;45867;52.480;6.056;2023-03-01T05:45:23;103061.66;;;-5.94;100.00
60015;BME280;45867;52.480;6.056;2023-03-01T05:47:49;103055.16;;;-6.00;100.00
60015;BME280;45867;52.480;6.056;2023-03-01T05:50:21;103047.50;;;-6.01;100.00
60015;BME280;45867;52.480;6.056;2023-03-01T05:52:51;103045.34;;;-6.08;100.00
60015;BME280;45867;52.480;6.056;2023-03-01T05:55:19;103039.44;;;-6.10;100.00
60015;BME280;45867;52.480;6.056;2023-03-01T05:57:45;103044.41;;;-6.07;100.00
60015;BME280;45867;52.480;6.056;2023-03-01T06:00:12;103047.69;;;-6.17;100.00
60015;BME280;45867;52.480;6.056;2023-03-01T06:02:38;103038.59;;;-6.23;100.00
60015;BME280;45867;52.480;6.056;2023-03-01T06:05:05;103045.22;;;-6.19;100.00
60015;BME280;45867;52.480;6.056;2023-03-01T06:07:31;103045.13;;;-6.17;100.00
60015;BME280;45867;52.480;6.056;2023-03-01T06:09:56;103048.09;;;-6.23;100.00
60015;BME280;45867;52.480;6.056;2023-03-01T06:12:22;103050.06;;;-6.27;100.00
60015;BME280;45867;52.480;6.056;2023-03-01T06:14:47;103053.97;;;-6.34;100.00
60015;BME280;45867;52.480;6.056;2023-03-01T06:17:14;103058.59;;;-6.39;100.00
60015;BME280;45867;52.480;6.056;2023-03-01T06:19:40;103046.19;;;-6.47;100.00
60015;BME280;45867;52.480;6.056;2023-03-01T06:22:05;103043.19;;;-6.54;100.00
60015;BME280;45867;52.480;6.056;2023-03-01T06:24:30;103047.00;;;-6.59;100.00
60015;BME280;45867;52.480;6.056;2023-03-01T06:26:56;103031.25;;;-6.69;100.00
60015;BME280;45867;52.480;6.056;2023-03-01T06:29:22;103028.16;;;-6.74;100.00
60015;BME280;45867;52.480;6.056;2023-03-01T06:31:48;103055.00;;;-6.64;100.00
60015;BME280;45867;52.480;6.056;2023-03-01T06:34:14;103052.53;;;-6.65;100.00
60015;BME280;45867;52.480;6.056;2023-03-01T06:36:39;103049.22;;;-6.67;100.00
60015;BME280;45867;52.480;6.056;2023-03-01T06:39:06;103057.78;;;-6.67;100.00
60015;BME280;45867;52.480;6.056;2023-03-01T06:41:31;103047.22;;;-6.77;100.00
60015;BME280;45867;52.480;6.056;2023-03-01T06:43:57;103058.59;;;-6.66;100.00
60015;BME280;45867;52.480;6.056;2023-03-01T06:46:23;103057.06;;;-6.69;100.00
60015;BME280;45867;52.480;6.056;2023-03-01T06:48:48;103051.00;;;-6.68;100.00
60015;BME280;45867;52.480;6.056;2023-03-01T06:51:14;103058.59;;;-6.66;100.00
60015;BME280;45867;52.480;6.056;2023-03-01T06:53:39;103058.53;;;-6.65;100.00
60015;BME280;45867;52.480;6.056;2023-03-01T06:56:05;103046.84;;;-6.71;100.00
60015;BME280;45867;52.480;6.056;2023-03-01T06:58:30;103063.56;;;-6.63;100.00
60015;BME280;45867;52.480;6.056;2023-03-01T07:00:55;103071.75;;;-6.57;100.00
60015;BME280;45867;52.480;6.056;2023-03-01T07:03:21;103066.16;;;-6.63;100.00
60015;BME280;45867;52.480;6.056;2023-03-01T07:05:48;103075.69;;;-6.51;100.00
60015;BME280;45867;52.480;6.056;2023-03-01T07:08:14;103069.19;;;-6.44;100.00
60015;BME280;45867;52.480;6.056;2023-03-01T07:10:40;103054.25;;;-6.52;100.00
60015;BME280;45867;52.480;6.056;2023-03-01T07:13:05;103072.63;;;-6.31;100.00
60015;BME280;45867;52.480;6.056;2023-03-01T07:15:32;103062.44;;;-6.19;100.00
60015;BME280;45867;52.480;6.056;2023-03-01T07:17:57;103063.50;;;-6.09;100.00
60015;BME280;45867;52.480;6.056;2023-03-01T07:20:23;103061.16;;;-5.99;100.00
60015;BME280;45867;52.480;6.056;2023-03-01T07:22:51;103070.25;;;-5.94;100.00
60015;BME280;45867;52.480;6.056;2023-03-01T07:25:16;103067.75;;;-5.95;100.00
60015;BME280;45867;52.480;6.056;2023-03-01T07:27:42;103066.19;;;-5.98;100.00
60015;BME280;45867;52.480;6.056;2023-03-01T07:30:08;103085.56;;;-5.92;100.00
60015;BME280;45867;52.480;6.056;2023-03-01T07:32:33;103071.56;;;-5.88;100.00
60015;BME280;45867;52.480;6.056;2023-03-01T07:34:59;103080.44;;;-5.80;100.00
60015;BME280;45867;52.480;6.056;2023-03-01T07:37:24;103075.28;;;-5.80;100.00
60015;BME280;45867;52.480;6.056;2023-03-01T07:39:49;103075.69;;;-5.73;100.00
60015;BME280;45867;52.480;6.056;2023-03-01T07:42:15;103079.00;;;-5.58;100.00
60015;BME280;45867;52.480;6.056;2023-03-01T07:44:40;103077.66;;;-5.51;100.00
60015;BME280;45867;52.480;6.056;2023-03-01T07:47:05;103062.47;;;-5.43;100.00
60015;BME280;45867;52.480;6.056;2023-03-01T07:49:31;103073.69;;;-5.18;100.00
60015;BME280;45867;52.480;6.056;2023-03-01T07:51:56;103080.13;;;-5.00;100.00
60015;BME280;45867;52.480;6.056;2023-03-01T07:54:21;103082.25;;;-4.81;100.00
60015;BME280;45867;52.480;6.056;2023-03-01T07:56:47;103078.94;;;-4.59;100.00
60015;BME280;45867;52.480;6.056;2023-03-01T07:59:12;103088.91;;;-4.41;100.00
60015;BME280;45867;52.480;6.056;2023-03-01T08:01:37;103084.53;;;-4.17;100.00
60015;BME280;45867;52.480;6.056;2023-03-01T08:04:03;103079.88;;;-4.00;100.00
60015;BME280;45867;52.480;6.056;2023-03-01T08:06:33;103072.22;;;-3.91;100.00
60015;BME280;45867;52.480;6.056;2023-03-01T08:08:58;103076.00;;;-3.84;100.00
60015;BME280;45867;52.480;6.056;2023-03-01T08:11:24;103066.00;;;-3.77;100.00
60015;BME280;45867;52.480;6.056;2023-03-01T08:13:49;103061.78;;;-3.67;100.00
60015;BME280;45867;52.480;6.056;2023-03-01T08:16:15;103059.78;;;-3.63;100.00
60015;BME280;45867;52.480;6.056;2023-03-01T08:18:41;103057.22;;;-3.52;100.00
60015;BME280;45867;52.480;6.056;2023-03-01T08:21:12;103048.81;;;-3.44;100.00
60015;BME280;45867;52.480;6.056;2023-03-01T08:23:38;103049.19;;;-3.38;100.00
60015;BME280;45867;52.480;6.056;2023-03-01T08:26:15;103057.03;;;-3.05;100.00
60015;BME280;45867;52.480;6.056;2023-03-01T08:28:42;103053.09;;;-2.88;100.00
60015;BME280;45867;52.480;6.056;2023-03-01T08:31:22;103044.78;;;-2.71;100.00
60015;BME280;45867;52.480;6.056;2023-03-01T08:33:49;103046.31;;;-2.69;100.00
60015;BME280;45867;52.480;6.056;2023-03-01T08:36:31;103046.97;;;-2.55;100.00
60015;BME280;45867;52.480;6.056;2023-03-01T08:38:57;103040.91;;;-2.44;100.00
60015;BME280;45867;52.480;6.056;2023-03-01T08:41:23;103044.53;;;-2.36;100.00
60015;BME280;45867;52.480;6.056;2023-03-01T08:43:48;103036.72;;;-2.36;100.00
60015;BME280;45867;52.480;6.056;2023-03-01T08:46:14;103046.34;;;-2.27;100.00
60015;BME280;45867;52.480;6.056;2023-03-01T08:48:40;103035.66;;;-2.33;100.00
60015;BME280;45867;52.480;6.056;2023-03-01T08:51:10;103047.13;;;-2.15;100.00
60015;BME280;45867;52.480;6.056;2023-03-01T08:53:36;103039.00;;;-2.01;100.00
60015;BME280;45867;52.480;6.056;2023-03-01T08:56:01;103033.63;;;-1.88;100.00
60015;BME280;45867;52.480;6.056;2023-03-01T08:58:28;103019.00;;;-1.79;100.00
60015;BME280;45867;52.480;6.056;2023-03-01T09:00:53;103025.38;;;-1.62;100.00
60015;BME280;45867;52.480;6.056;2023-03-01T09:03:18;103026.06;;;-1.60;100.00
60015;BME280;45867;52.480;6.056;2023-03-01T09:05:44;103029.00;;;-1.44;100.00
60015;BME280;45867;52.480;6.056;2023-03-01T09:08:11;103029.84;;;-1.33;100.00
60015;BME280;45867;52.480;6.056;2023-03-01T09:10:38;103030.94;;;-1.26;100.00
60015;BME280;45867;52.480;6.056;2023-03-01T09:13:04;103035.94;;;-1.14;100.00
60015;BME280;45867;52.480;6.056;2023-03-01T09:15:29;103030.31;;;-1.09;100.00
60015;BME280;45867;52.480;6.056;2023-03-01T09:17:55;103033.47;;;-0.96;100.00
60015;BME280;45867;52.480;6.056;2023-03-01T09:20:20;103024.59;;;-0.83;100.00
60015;BME280;45867;52.480;6.056;2023-03-01T09:22:45;103028.69;;;-0.71;100.00
60015;BME280;45867;52.480;6.056;2023-03-01T09:25:11;103028.81;;;-0.63;100.00
60015;BME280;45867;52.480;6.056;2023-03-01T09:27:36;103022.53;;;-0.51;100.00
60015;BME280;45867;52.480;6.056;2023-03-01T09:30:02;103015.66;;;-0.32;100.00
60015;BME280;45867;52.480;6.056;2023-03-01T09:32:30;103016.31;;;-0.20;100.00
60015;BME280;45867;52.480;6.056;2023-03-01T09:34:55;103005.53;;;0.12;100.00
60015;BME280;45867;52.480;6.056;2023-03-01T09:37:29;103010.66;;;1.22;100.00
60015;BME280;45867;52.480;6.056;2023-03-01T09:39:54;103007.09;;;2.78;100.00
60015;BME280;45867;52.480;6.056;2023-03-01T09:42:20;102999.25;;;4.63;100.00
60015;BME280;45867;52.480;6.056;2023-03-01T09:44:57;103013.44;;;5.84;100.00
60015;BME280;45867;52.480;6.056;2023-03-01T09:47:34;103024.19;;;5.74;100.00
60015;BME280;45867;52.480;6.056;2023-03-01T09:50:11;103028.47;;;4.92;100.00
60015;BME280;45867;52.480;6.056;2023-03-01T09:52:46;103018.34;;;4.10;100.00
60015;BME280;45867;52.480;6.056;2023-03-01T09:55:23;103014.38;;;3.50;100.00
60015;BME280;45867;52.480;6.056;2023-03-01T09:57:55;103018.47;;;3.11;100.00
60015;BME280;45867;52.480;6.056;2023-03-01T10:03:26;103011.63;;;2.60;100.00
60015;BME280;45867;52.480;6.056;2023-03-01T10:06:13;103003.25;;;2.56;100.00
60015;BME280;45867;52.480;6.056;2023-03-01T10:08:41;103000.63;;;2.48;100.00
60015;BME280;45867;52.480;6.056;2023-03-01T10:11:20;102991.59;;;2.42;100.00
60015;BME280;45867;52.480;6.056;2023-03-01T10:13:52;103004.22;;;2.47;100.00
60015;BME280;45867;52.480;6.056;2023-03-01T10:16:37;103002.50;;;2.72;100.00
60015;BME280;45867;52.480;6.056;2023-03-01T10:19:06;102993.22;;;3.60;100.00
60015;BME280;45867;52.480;6.056;2023-03-01T10:21:41;103009.91;;;5.16;100.00
60015;BME280;45867;52.480;6.056;2023-03-01T10:24:13;102989.88;;;6.78;100.00
60015;BME280;45867;52.480;6.056;2023-03-01T10:29:12;102998.75;;;10.06;100.00
60015;BME280;45867;52.480;6.056;2023-03-01T10:31:49;102991.66;;;10.89;100.00
60015;BME280;45867;52.480;6.056;2023-03-01T10:34:20;102998.91;;;11.69;100.00
60015;BME280;45867;52.480;6.056;2023-03-01T10:36:50;102997.56;;;12.52;100.00
60015;BME280;45867;52.480;6.056;2023-03-01T10:39:21;102994.47;;;13.80;88.24
60015;BME280;45867;52.480;6.056;2023-03-01T10:42:03;103001.25;;;14.39;82.98
60015;BME280;45867;52.480;6.056;2023-03-01T10:44:37;102987.13;;;15.18;74.87
60015;BME280;45867;52.480;6.056;2023-03-01T10:47:02;102982.97;;;15.83;64.05
60015;BME280;45867;52.480;6.056;2023-03-01T10:49:29;102982.00;;;16.38;55.79
60015;BME280;45867;52.480;6.056;2023-03-01T10:51:54;102984.16;;;17.01;48.53
60015;BME280;45867;52.480;6.056;2023-03-01T10:54:26;102985.88;;;17.65;47.00
60015;BME280;45867;52.480;6.056;2023-03-01T10:56:55;102981.22;;;18.03;45.49
60015;BME280;45867;52.480;6.056;2023-03-01T10:59:29;102983.19;;;18.38;41.85
60015;BME280;45867;52.480;6.056;2023-03-01T11:02:30;102975.69;;;19.17;41.20
60015;BME280;45867;52.480;6.056;2023-03-01T11:05:16;102973.06;;;18.86;35.60
60015;BME280;45867;52.480;6.056;2023-03-01T11:07:49;102965.22;;;19.95;35.84
60015;BME280;45867;52.480;6.056;2023-03-01T11:10:21;102953.91;;;19.99;35.51
60015;BME280;45867;52.480;6.056;2023-03-01T11:12:47;102962.56;;;19.90;37.31
60015;BME280;45867;52.480;6.056;2023-03-01T11:15:21;102947.22;;;20.70;34.21
60015;BME280;45867;52.480;6.056;2023-03-01T11:17:47;102953.22;;;21.20;33.21
60015;BME280;45867;52.480;6.056;2023-03-01T11:20:17;102951.59;;;21.19;33.11
60015;BME280;45867;52.480;6.056;2023-03-01T11:22:47;102947.41;;;21.32;32.82
60015;BME280;45867;52.480;6.056;2023-03-01T11:25:15;102940.09;;;21.08;31.76
60015;BME280;45867;52.480;6.056;2023-03-01T11:27:44;102942.97;;;20.64;31.71
60015;BME280;45867;52.480;6.056;2023-03-01T11:30:24;102947.19;;;21.28;29.54
60015;BME280;45867;52.480;6.056;2023-03-01T11:35:34;102949.41;;;21.21;30.85
60015;BME280;45867;52.480;6.056;2023-03-01T11:43:52;102951.69;;;21.81;28.30
60015;BME280;45867;52.480;6.056;2023-03-01T11:46:34;102945.03;;;22.49;28.07
60015;BME280;45867;52.480;6.056;2023-03-01T11:51:54;102931.81;;;21.28;28.79
60015;BME280;45867;52.480;6.056;2023-03-01T11:57:35;102932.78;;;22.00;28.40
60015;BME280;45867;52.480;6.056;2023-03-01T12:02:45;102932.41;;;22.06;26.88
60015;BME280;45867;52.480;6.056;2023-03-01T12:11:39;102922.41;;;22.26;27.33
60015;BME280;45867;52.480;6.056;2023-03-01T12:17:16;102923.25;;;21.88;26.78
60015;BME280;45867;52.480;6.056;2023-03-01T12:22:34;102896.06;;;19.96;28.19
60015;BME280;45867;52.480;6.056;2023-03-01T12:28:19;102895.75;;;20.71;28.13
60015;BME280;45867;52.480;6.056;2023-03-01T12:31:09;102893.47;;;21.32;27.17
60015;BME280;45867;52.480;6.056;2023-03-01T12:33:54;102888.00;;;20.65;27.76
60015;BME280;45867;52.480;6.056;2023-03-01T12:36:26;102892.50;;;20.74;27.90
60015;BME280;45867;52.480;6.056;2023-03-01T12:39:21;102879.69;;;19.33;28.25
60015;BME280;45867;52.480;6.056;2023-03-01T12:44:46;102870.25;;;19.45;29.89
60015;BME280;45867;52.480;6.056;2023-03-01T12:47:30;102874.72;;;19.60;28.62
60015;BME280;45867;52.480;6.056;2023-03-01T12:50:05;102861.94;;;20.60;28.22
60015;BME280;45867;52.480;6.056;2023-03-01T12:52:53;102866.63;;;20.73;28.05
60015;BME280;45867;52.480;6.056;2023-03-01T12:55:34;102848.13;;;20.03;29.42
60015;BME280;45867;52.480;6.056;2023-03-01T13:00:39;102838.94;;;20.04;28.92
60015;BME280;45867;52.480;6.056;2023-03-01T13:06:16;102843.38;;;19.40;29.24
60015;BME280;45867;52.480;6.056;2023-03-01T13:09:00;102834.22;;;18.10;30.52
60015;BME280;45867;52.480;6.056;2023-03-01T13:11:29;102833.84;;;18.98;29.86
60015;BME280;45867;52.480;6.056;2023-03-01T13:16:47;102823.72;;;18.54;30.36
60015;BME280;45867;52.480;6.056;2023-03-01T13:19:19;102830.59;;;19.06;29.31
60015;BME280;45867;52.480;6.056;2023-03-01T13:21:46;102817.25;;;19.46;29.61
60015;BME280;45867;52.480;6.056;2023-03-01T13:24:37;102818.13;;;19.31;29.81
60015;BME280;45867;52.480;6.056;2023-03-01T13:29:48;102811.63;;;18.62;30.40
60015;BME280;45867;52.480;6.056;2023-03-01T13:37:36;102804.28;;;17.35;30.88
60015;BME280;45867;52.480;6.056;2023-03-01T13:42:49;102797.22;;;17.03;32.99
60015;BME280;45867;52.480;6.056;2023-03-01T13:45:39;102802.66;;;17.23;31.85
60015;BME280;45867;52.480;6.056;2023-03-01T13:48:15;102791.72;;;17.40;31.14
60015;BME280;45867;52.480;6.056;2023-03-01T13:51:05;102788.88;;;16.89;32.22
60015;BME280;45867;52.480;6.056;2023-03-01T13:53:39;102782.91;;;16.39;33.51
60015;BME280;45867;52.480;6.056;2023-03-01T13:56:12;102791.22;;;16.38;33.13
60015;BME280;45867;52.480;6.056;2023-03-01T13:59:16;102781.16;;;16.18;33.45
60015;BME280;45867;52.480;6.056;2023-03-01T14:01:42;102782.84;;;16.29;33.76
60015;BME280;45867;52.480;6.056;2023-03-01T14:04:30;102776.63;;;16.18;33.83
60015;BME280;45867;52.480;6.056;2023-03-01T14:07:31;102770.25;;;15.65;34.91
60015;BME280;45867;52.480;6.056;2023-03-01T14:10:00;102756.94;;;15.43;35.06
60015;BME280;45867;52.480;6.056;2023-03-01T14:12:57;102745.28;;;14.28;36.13
60015;BME280;45867;52.480;6.056;2023-03-01T14:15:46;102750.53;;;14.39;36.75
60015;BME280;45867;52.480;6.056;2023-03-01T14:20:49;102744.53;;;13.36;38.53
60015;BME280;45867;52.480;6.056;2023-03-01T14:23:21;102750.50;;;13.03;38.18
60015;BME280;45867;52.480;6.056;2023-03-01T14:25:57;102735.38;;;13.44;38.40
60015;BME280;45867;52.480;6.056;2023-03-01T14:28:26;102732.91;;;13.14;38.66
60015;BME280;45867;52.480;6.056;2023-03-01T14:30:54;102719.44;;;13.32;38.99
60015;BME280;45867;52.480;6.056;2023-03-01T14:33:25;102724.13;;;13.42;38.47
60015;BME280;45867;52.480;6.056;2023-03-01T14:36:00;102724.69;;;12.51;40.34
60015;BME280;45867;52.480;6.056;2023-03-01T14:38:45;102729.41;;;12.73;40.48
60015;BME280;45867;52.480;6.056;2023-03-01T14:41:20;102717.16;;;12.48;41.04
60015;BME280;45867;52.480;6.056;2023-03-01T14:43:51;102702.16;;;11.95;44.07
60015;BME280;45867;52.480;6.056;2023-03-01T14:46:43;102713.66;;;11.89;46.56
60015;BME280;45867;52.480;6.056;2023-03-01T14:49:14;102708.94;;;12.03;49.21
60015;BME280;45867;52.480;6.056;2023-03-01T14:51:43;102700.19;;;11.60;47.78
60015;BME280;45867;52.480;6.056;2023-03-01T14:54:41;102701.75;;;11.49;46.79
60015;BME280;45867;52.480;6.056;2023-03-01T14:57:05;102691.19;;;11.31;48.77
60015;BME280;45867;52.480;6.056;2023-03-01T14:59:33;102693.22;;;11.17;46.54
60015;BME280;45867;52.480;6.056;2023-03-01T15:01:58;102691.91;;;10.89;46.75
60015;BME280;45867;52.480;6.056;2023-03-01T15:04:26;102685.78;;;10.52;46.87
60015;BME280;45867;52.480;6.056;2023-03-01T15:06:57;102691.22;;;10.14;50.22
60015;BME280;45867;52.480;6.056;2023-03-01T15:09:32;102687.31;;;10.16;52.12